Time;durP1;ratioP1;P1;durP2;ratioP2;P2;SDS_P1;SDS_P2;PMS_P1;PMS_P2;Temp;Humidity;BMP_temperature;BMP_pressure;BME280_temperature;BME280_humidity;BME280_pressure;Samples;Min_cycle;Max_cycle;Signal;HPM_P1;HPM_P2
2023/10/13 00:01:58;;;;;;;2.90;1.60;;;15.50;63.20;;;;;;5065733;28;19914;-71
2023/10/13 00:04:25;;;;;;;3.33;1.70;;;15.50;62.50;;;;;;5075122;28;20405;-71
2023/10/13 00:06:59;;;;;;;2.45;1.33;;;15.50;62.60;;;;;;5075430;28;20036;-70
2023/10/13 00:09:38;;;;;;;3.42;1.90;;;15.50;62.60;;;;;;5087430;28;20033;-71
2023/10/13 00:12:13;;;;;;;2.65;1.90;;;15.50;62.70;;;;;;5063758;28;20029;-70
2023/10/13 00:14:45;;;;;;;2.38;1.90;;;15.50;62.70;;;;;;5080861;28;20493;-71
2023/10/13 00:17:19;;;;;;;2.75;1.77;;;15.50;62.80;;;;;;5073423;28;20115;-70
2023/10/13 00:19:45;;;;;;;2.00;1.80;;;15.50;62.80;;;;;;5060311;28;20073;-70
2023/10/13 00:22:12;;;;;;;3.13;1.60;;;15.50;62.90;;;;;;5092995;28;20039;-70
2023/10/13 00:24:43;;;;;;;5.30;1.92;;;15.50;62.80;;;;;;5084906;28;20032;-70
2023/10/13 00:27:29;;;;;;;3.50;1.90;;;15.50;62.90;;;;;;5059259;28;20060;-70
2023/10/13 00:30:16;;;;;;;3.28;1.75;;;15.50;62.90;;;;;;5092737;28;20099;-71
2023/10/13 00:32:47;;;;;;;4.13;1.73;;;15.50;63.00;;;;;;5066742;28;20486;-71
2023/10/13 00:35:24;;;;;;;2.72;1.80;;;15.40;63.00;;;;;;5068015;28;20042;-71
2023/10/13 00:37:53;;;;;;;2.17;1.70;;;15.50;63.00;;;;;;5077225;28;20149;-71
2023/10/13 00:40:41;;;;;;;2.13;1.65;;;15.40;63.10;;;;;;5078512;28;20038;-70
2023/10/13 00:45:57;;;;;;;1.83;1.65;;;15.40;63.10;;;;;;5096198;28;20039;-71
2023/10/13 00:48:34;;;;;;;1.80;1.70;;;15.40;63.10;;;;;;5076694;28;20089;-70
2023/10/13 00:51:16;;;;;;;1.90;1.60;;;15.40;63.10;;;;;;5077751;28;20308;-70
2023/10/13 00:53:44;;;;;;;4.55;1.65;;;15.40;63.10;;;;;;5094845;28;20073;-70
2023/10/13 00:56:18;;;;;;;2.10;1.60;;;15.40;63.10;;;;;;5095688;28;20052;-72
2023/10/13 00:58:52;;;;;;;3.40;1.77;;;15.40;63.10;;;;;;5091930;28;20363;-71
2023/10/13 01:01:21;;;;;;;2.28;1.73;;;15.40;63.20;;;;;;5075546;28;20020;-70
2023/10/13 01:03:55;;;;;;;2.97;1.80;;;15.40;63.20;;;;;;5096212;28;20040;-70
2023/10/13 01:06:28;;;;;;;3.30;1.85;;;15.40;63.20;;;;;;5078051;28;20117;-70
2023/10/13 01:09:12;;;;;;;3.28;2.10;;;15.40;63.30;;;;;;5078149;28;20071;-69
2023/10/13 01:11:42;;;;;;;1.95;1.75;;;15.40;63.40;;;;;;5077775;28;20039;-70
2023/10/13 01:14:12;;;;;;;3.72;1.65;;;15.40;63.30;;;;;;5077661;28;20028;-70
2023/10/13 01:16:43;;;;;;;2.75;1.80;;;15.40;63.30;;;;;;5077142;28;20462;-71
2023/10/13 01:19:12;;;;;;;2.47;1.50;;;15.40;63.40;;;;;;5094875;28;20028;-69
2023/10/13 01:21:40;;;;;;;4.35;1.80;;;15.40;63.40;;;;;;5094977;28;20032;-71
2023/10/13 01:24:07;;;;;;;1.85;1.63;;;15.40;63.40;;;;;;5095079;28;20081;-72
2023/10/13 01:26:38;;;;;;;2.65;1.48;;;15.40;63.50;;;;;;5072992;28;20052;-70
2023/10/13 01:29:14;;;;;;;4.13;1.98;;;15.40;63.50;;;;;;5093968;28;20115;-71
2023/10/13 01:31:45;;;;;;;1.60;1.50;;;15.40;63.60;;;;;;5095316;28;20039;-70
2023/10/13 01:34:21;;;;;;;2.25;1.67;;;15.40;63.60;;;;;;5095726;28;20024;-71
2023/10/13 01:36:51;;;;;;;1.90;1.60;;;15.40;63.60;;;;;;5095636;28;20064;-71
2023/10/13 01:39:22;;;;;;;4.05;1.80;;;15.40;63.70;;;;;;5077384;28;20081;-70
2023/10/13 01:41:55;;;;;;;2.45;1.65;;;15.40;63.70;;;;;;5076995;28;20409;-70
2023/10/13 01:44:24;;;;;;;2.88;1.70;;;15.40;63.80;;;;;;5095453;28;20021;-70
2023/10/13 01:46:51;;;;;;;2.47;1.73;;;15.40;63.80;;;;;;5076332;28;20040;-69
2023/10/13 01:49:16;;;;;;;3.20;1.80;;;15.40;63.80;;;;;;5076841;28;20031;-70
2023/10/13 01:51:42;;;;;;;3.88;1.58;;;15.30;63.70;;;;;;5076824;28;20427;-71
2023/10/13 01:54:12;;;;;;;3.97;2.03;;;15.30;63.80;;;;;;5095688;28;20111;-71
2023/10/13 01:56:43;;;;;;;3.78;2.00;;;15.30;63.80;;;;;;5077059;28;20484;-71
2023/10/13 01:59:12;;;;;;;2.22;1.70;;;15.30;63.80;;;;;;5095190;28;20028;-71
2023/10/13 02:01:40;;;;;;;2.90;1.90;;;15.30;63.90;;;;;;5076834;28;20398;-71
2023/10/13 02:04:06;;;;;;;3.35;1.70;;;15.30;63.90;;;;;;5077117;28;20048;-70
2023/10/13 02:06:36;;;;;;;2.35;1.52;;;15.30;63.90;;;;;;5070598;28;20485;-70
2023/10/13 02:09:25;;;;;;;4.03;1.55;;;15.30;63.90;;;;;;5074951;28;20028;-70
2023/10/13 02:11:54;;;;;;;1.90;1.60;;;15.30;64.00;;;;;;5057239;28;20025;-70
2023/10/13 02:14:25;;;;;;;3.83;1.80;;;15.30;64.00;;;;;;5058835;28;20036;-70
2023/10/13 02:16:55;;;;;;;2.80;1.90;;;15.30;64.00;;;;;;5084748;28;20023;-70
2023/10/13 02:19:27;;;;;;;2.22;2.03;;;15.30;64.00;;;;;;5091150;28;20142;-70
2023/10/13 02:21:58;;;;;;;2.28;1.60;;;15.30;64.00;;;;;;5078697;28;20028;-70
2023/10/13 02:24:29;;;;;;;2.97;1.73;;;15.30;64.00;;;;;;5074344;28;20057;-71
2023/10/13 02:27:04;;;;;;;3.03;2.08;;;15.30;64.00;;;;;;5056921;28;20505;-71
2023/10/13 02:29:30;;;;;;;3.85;1.80;;;15.30;64.00;;;;;;5056477;28;20042;-70
2023/10/13 02:31:57;;;;;;;4.50;1.80;;;15.30;64.00;;;;;;5061580;28;20024;-70
2023/10/13 02:34:23;;;;;;;2.38;2.00;;;15.30;64.10;;;;;;5094312;28;20023;-70
2023/10/13 02:36:49;;;;;;;4.93;1.95;;;15.30;64.10;;;;;;5094622;28;20016;-71
2023/10/13 02:39:16;;;;;;;2.88;2.00;;;15.30;64.00;;;;;;5076145;28;20056;-70
2023/10/13 02:41:48;;;;;;;3.00;1.83;;;15.30;64.10;;;;;;5075939;28;20035;-70
2023/10/13 02:44:28;;;;;;;2.33;1.83;;;15.30;64.10;;;;;;5075862;28;20032;-70
2023/10/13 02:46:55;;;;;;;2.67;1.85;;;15.30;64.10;;;;;;5074916;28;20035;-71
2023/10/13 02:49:37;;;;;;;4.65;2.00;;;15.30;64.00;;;;;;5094485;28;20115;-71
2023/10/13 02:52:08;;;;;;;1.95;1.73;;;15.30;64.10;;;;;;5075695;28;20031;-71
2023/10/13 02:54:39;;;;;;;4.15;2.20;;;15.30;64.10;;;;;;5075807;28;20032;-70
2023/10/13 02:57:05;;;;;;;6.63;2.17;;;15.30;64.10;;;;;;5075104;28;20028;-70
2023/10/13 02:59:46;;;;;;;3.22;2.05;;;15.30;64.10;;;;;;5074233;28;20034;-71
2023/10/13 03:04:47;;;;;;;2.97;2.08;;;15.30;64.10;;;;;;5093325;28;20080;-70
2023/10/13 03:07:15;;;;;;;3.83;2.10;;;15.30;64.10;;;;;;5075867;28;20054;-71
2023/10/13 03:09:50;;;;;;;4.15;2.15;;;15.30;64.10;;;;;;5075643;28;20028;-73
2023/10/13 03:12:17;;;;;;;3.97;2.05;;;15.30;64.20;;;;;;5093192;28;20031;-70
2023/10/13 03:17:35;;;;;;;2.90;1.80;;;15.30;64.20;;;;;;5044070;28;20032;-70
2023/10/13 03:20:01;;;;;;;2.85;2.15;;;15.30;64.30;;;;;;5059260;28;20035;-70
2023/10/13 03:22:33;;;;;;;5.75;2.33;;;15.30;64.40;;;;;;5075141;28;20024;-71
2023/10/13 03:25:06;;;;;;;5.43;2.20;;;15.30;64.40;;;;;;5093520;28;20032;-73
2023/10/13 03:28:01;;;;;;;5.00;2.30;;;15.30;64.40;;;;;;5070329;28;20036;-70
2023/10/13 03:30:34;;;;;;;3.67;2.30;;;15.30;64.50;;;;;;5089498;28;20044;-70
2023/10/13 03:33:06;;;;;;;2.67;2.20;;;15.30;64.50;;;;;;5076070;28;20028;-69
2023/10/13 03:35:42;;;;;;;5.25;2.33;;;15.20;64.50;;;;;;5093452;28;20028;-70
2023/10/13 03:38:16;;;;;;;5.18;2.28;;;15.20;64.60;;;;;;5075525;28;20116;-70
2023/10/13 03:40:49;;;;;;;2.60;1.90;;;15.20;64.70;;;;;;5075538;28;20107;-71
2023/10/13 03:43:21;;;;;;;3.88;2.13;;;15.20;64.80;;;;;;5093790;28;20027;-71
2023/10/13 03:45:52;;;;;;;4.07;2.20;;;15.20;64.80;;;;;;5093388;28;20043;-70
2023/10/13 03:51:14;;;;;;;3.85;2.20;;;15.20;65.10;;;;;;5093088;28;20111;-70
2023/10/13 03:53:52;;;;;;;4.10;2.20;;;15.20;65.20;;;;;;5075310;28;20024;-70
2023/10/13 03:56:56;;;;;;;6.32;2.20;;;15.20;65.20;;;;;;5075484;28;20038;-71
2023/10/13 04:04:14;;;;;;;3.45;2.17;;;15.20;65.40;;;;;;5082897;28;20436;-72
2023/10/13 04:17:22;;;;;;;2.35;2.08;;;15.20;65.60;;;;;;5079453;28;20486;-69
2023/10/13 04:25:35;;;;;;;2.90;2.20;;;15.10;66.00;;;;;;5097237;28;20040;-70
2023/10/13 04:30:59;;;;;;;4.10;2.28;;;15.00;66.30;;;;;;5081426;28;20032;-71
2023/10/13 04:36:13;;;;;;;5.63;2.17;;;15.00;66.50;;;;;;5096989;28;20036;-74
2023/10/13 04:38:56;;;;;;;2.80;2.10;;;15.00;66.60;;;;;;5097131;28;20031;-77
2023/10/13 04:41:31;;;;;;;2.45;2.15;;;15.00;66.80;;;;;;5096890;28;20350;-81
2023/10/13 06:29:55;;;;;;;4.93;3.25;;;15.40;68.30;;;;;;5093421;28;20393;-74
2023/10/13 06:32:25;;;;;;;5.25;3.33;;;15.30;68.30;;;;;;5075491;28;20104;-75
2023/10/13 06:34:58;;;;;;;5.55;3.53;;;15.40;68.40;;;;;;5076864;28;20135;-73
2023/10/13 06:37:31;;;;;;;8.88;3.65;;;15.50;68.50;;;;;;5094748;28;20039;-72
2023/10/13 06:40:05;;;;;;;5.32;3.55;;;15.50;68.70;;;;;;5077260;28;20031;-74
2023/10/13 06:42:34;;;;;;;6.03;3.67;;;15.50;68.70;;;;;;5077482;28;20413;-74
2023/10/13 06:45:03;;;;;;;6.18;3.65;;;15.60;68.80;;;;;;5095003;28;20363;-75
2023/10/13 06:47:29;;;;;;;5.45;3.58;;;15.60;68.80;;;;;;5075986;28;20030;-74
2023/10/13 06:49:56;;;;;;;5.35;3.80;;;15.70;68.90;;;;;;5056381;28;20028;-74
2023/10/13 06:52:22;;;;;;;6.35;3.67;;;15.70;68.90;;;;;;5074189;28;20426;-74
2023/10/13 06:54:53;;;;;;;5.68;3.92;;;15.70;68.90;;;;;;5074682;28;20032;-75
2023/10/13 06:57:22;;;;;;;6.50;3.80;;;15.80;68.90;;;;;;5094200;28;20077;-74
2023/10/13 06:59:48;;;;;;;5.47;3.88;;;15.90;69.00;;;;;;5076291;28;20024;-76
2023/10/13 07:02:23;;;;;;;6.22;3.95;;;15.90;69.00;;;;;;5068475;28;20028;-73
2023/10/13 07:04:56;;;;;;;6.80;4.10;;;15.90;69.00;;;;;;5075902;28;20093;-71
2023/10/13 07:07:23;;;;;;;6.57;3.93;;;16.00;69.10;;;;;;5094814;28;20112;-72
2023/10/13 07:09:55;;;;;;;7.22;3.80;;;16.00;69.00;;;;;;5076416;28;20327;-72
2023/10/13 07:12:27;;;;;;;6.85;3.92;;;16.10;69.10;;;;;;5076303;28;20032;-73
2023/10/13 07:15:10;;;;;;;7.53;3.97;;;16.10;69.10;;;;;;5076542;28;20035;-82
2023/10/13 07:17:39;;;;;;;5.47;4.13;;;16.20;69.10;;;;;;5076745;28;20119;-73
2023/10/13 07:20:14;;;;;;;6.25;3.92;;;16.20;69.00;;;;;;5093021;28;20486;-73
2023/10/13 07:22:57;;;;;;;6.38;4.03;;;16.30;69.10;;;;;;5076421;28;20039;-74
2023/10/13 07:25:26;;;;;;;6.05;4.07;;;16.30;69.10;;;;;;5093622;28;20539;-74
2023/10/13 07:27:54;;;;;;;7.13;4.35;;;16.40;69.00;;;;;;5075843;28;20569;-73
2023/10/13 07:30:26;;;;;;;5.95;4.22;;;16.40;68.90;;;;;;5075846;28;20024;-75
2023/10/13 07:32:52;;;;;;;6.22;4.43;;;16.40;68.90;;;;;;5093484;28;20077;-76
2023/10/13 07:35:20;;;;;;;6.68;4.47;;;16.50;68.90;;;;;;5092505;28;20043;-73
2023/10/13 07:37:52;;;;;;;7.72;4.30;;;16.60;68.90;;;;;;5071298;28;20474;-75
2023/10/13 07:43:00;;;;;;;5.88;4.00;;;16.60;69.40;;;;;;5093430;28;20156;-74
2023/10/13 07:45:35;;;;;;;7.00;4.10;;;16.60;68.80;;;;;;5075764;28;20112;-75
2023/10/13 07:48:20;;;;;;;6.38;4.43;;;16.70;68.70;;;;;;5078786;28;20040;-75
2023/10/13 07:51:27;;;;;;;;;;;16.70;68.70;;;;;;5082311;28;20016;-75
2023/10/13 07:53:52;;;;;;;4.22;3.40;;;16.70;69.40;;;;;;5096711;28;19908;-76
2023/10/13 07:56:18;;;;;;;7.47;4.10;;;16.80;68.50;;;;;;5079444;28;20500;-74
2023/10/13 07:58:52;;;;;;;7.97;4.25;;;16.80;68.50;;;;;;5079537;28;20025;-76
2023/10/13 08:01:18;;;;;;;5.07;4.07;;;16.90;68.50;;;;;;5059832;28;20124;-75
2023/10/13 08:03:45;;;;;;;7.05;4.43;;;17.00;68.50;;;;;;5077409;28;20265;-75
2023/10/13 08:08:43;;;;;;;6.88;4.63;;;17.10;68.30;;;;;;5077588;28;20037;-75
2023/10/13 08:11:26;;;;;;;7.63;4.90;;;17.10;68.30;;;;;;5082062;28;20020;-75
2023/10/13 08:13:54;;;;;;;6.28;4.50;;;17.20;68.30;;;;;;5096412;28;20060;-75
2023/10/13 08:16:54;;;;;;;5.55;4.30;;;17.20;68.20;;;;;;5096782;28;20016;-76
2023/10/13 08:19:27;;;;;;;6.43;4.15;;;17.20;68.30;;;;;;5059933;28;20085;-75
2023/10/13 08:22:42;;;;;;;5.65;4.32;;;17.30;68.10;;;;;;5068066;28;20492;-74
2023/10/13 08:45:20;;;;;;;7.00;5.80;;;17.40;68.60;;;;;;5096983;28;20036;-75
2023/10/13 08:53:44;;;;;;;7.63;5.55;;;17.50;68.40;;;;;;5097735;28;20381;-75
2023/10/13 09:04:21;;;;;;;7.82;5.45;;;17.40;68.50;;;;;;5096571;28;20185;-74
2023/10/13 09:12:35;;;;;;;6.37;5.47;;;17.30;68.60;;;;;;5096464;28;20529;-75
2023/10/13 09:15:44;;;;;;;6.57;5.40;;;17.30;68.60;;;;;;5096545;28;20049;-74
2023/10/13 09:17:54;;;;;;;6.03;5.35;;;17.30;68.60;;;;;;5093813;28;20411;-75
2023/10/13 09:20:42;;;;;;;6.60;5.18;;;17.20;68.50;;;;;;5077703;28;20055;-74
2023/10/13 09:23:24;;;;;;;6.60;5.05;;;17.30;68.80;;;;;;5096129;28;20069;-75
2023/10/13 09:26:08;;;;;;;9.02;5.45;;;17.30;68.80;;;;;;5078327;28;20063;-75
2023/10/13 09:28:36;;;;;;;6.75;5.40;;;17.30;68.70;;;;;;5096227;28;20032;-75
2023/10/13 09:31:09;;;;;;;8.07;5.40;;;17.30;68.60;;;;;;5096234;28;20028;-74
2023/10/13 09:33:36;;;;;;;7.53;5.13;;;17.40;68.60;;;;;;5078531;28;20561;-76
2023/10/13 09:36:13;;;;;;;5.80;5.20;;;17.40;68.50;;;;;;5095932;28;20107;-75
2023/10/13 09:38:48;;;;;;;5.57;4.85;;;17.40;68.50;;;;;;5078003;28;20119;-75
2023/10/13 09:41:25;;;;;;;5.55;4.60;;;17.50;68.50;;;;;;5095959;28;20032;-75
2023/10/13 09:43:52;;;;;;;6.72;4.80;;;17.60;68.50;;;;;;5095624;28;20028;-74
2023/10/13 09:46:26;;;;;;;5.93;4.75;;;17.60;68.30;;;;;;5095520;28;20036;-75
2023/10/13 09:49:07;;;;;;;;;;;17.70;68.30;;;;;;5078145;28;20028;-75
2023/10/13 09:51:33;;;;;;;7.10;4.53;;;17.80;68.80;;;;;;5078214;28;19939;-75
2023/10/13 09:54:11;;;;;;;6.70;5.13;;;17.80;68.00;;;;;;5095512;28;20020;-75
2023/10/13 09:56:54;;;;;;;5.40;4.80;;;17.80;67.90;;;;;;5077994;28;20470;-75
2023/10/13 09:59:24;;;;;;;6.68;4.78;;;17.90;68.00;;;;;;5077870;28;20024;-74
2023/10/13 10:02:08;;;;;;;5.60;4.78;;;17.90;67.90;;;;;;5096162;28;20089;-75
2023/10/13 10:04:42;;;;;;;7.20;4.82;;;17.80;67.80;;;;;;5077461;28;20117;-75
2023/10/13 10:07:08;;;;;;;7.13;4.88;;;17.80;67.80;;;;;;5095635;28;20365;-76
2023/10/13 10:09:34;;;;;;;6.10;4.75;;;17.80;67.90;;;;;;5077187;28;20115;-76
2023/10/13 10:12:14;;;;;;;5.97;5.13;;;17.80;67.80;;;;;;5077341;28;20032;-74
2023/10/13 10:15:14;;;;;;;6.70;5.05;;;17.80;67.90;;;;;;5076858;28;20469;-75
2023/10/13 10:17:43;;;;;;;6.55;4.97;;;17.70;68.00;;;;;;5095654;28;20032;-73
2023/10/13 10:20:32;;;;;;;5.40;4.45;;;17.70;67.90;;;;;;5095250;28;20016;-75
2023/10/13 10:22:59;;;;;;;5.10;4.03;;;17.70;67.90;;;;;;5095080;28;20370;-77
2023/10/13 10:25:34;;;;;;;4.88;4.18;;;17.70;67.90;;;;;;5077090;28;20085;-76
2023/10/13 10:28:05;;;;;;;5.57;4.50;;;17.80;68.00;;;;;;5095297;28;20040;-75
2023/10/13 10:30:33;;;;;;;5.43;4.30;;;17.80;67.90;;;;;;5094836;28;20024;-74
2023/10/13 10:33:03;;;;;;;5.50;4.45;;;17.80;67.80;;;;;;5094743;28;20028;-75
2023/10/13 10:35:34;;;;;;;6.65;4.30;;;17.90;67.70;;;;;;5077054;28;20039;-76
2023/10/13 10:38:24;;;;;;;4.97;4.05;;;17.90;67.60;;;;;;5095261;28;20039;-77
2023/10/13 10:41:03;;;;;;;5.32;4.20;;;18.00;67.60;;;;;;5095230;28;20059;-73
2023/10/13 10:43:47;;;;;;;6.55;3.83;;;18.10;67.40;;;;;;5077145;28;20047;-73
2023/10/13 10:46:16;;;;;;;5.30;3.93;;;18.10;67.30;;;;;;5076991;28;20358;-74
2023/10/13 10:48:44;;;;;;;4.95;3.80;;;18.20;67.20;;;;;;5095318;28;20097;-76
2023/10/13 10:51:23;;;;;;;5.07;3.90;;;18.20;67.00;;;;;;5095022;28;20038;-75
2023/10/13 10:53:53;;;;;;;5.30;4.10;;;18.20;66.90;;;;;;5094623;28;20103;-74
2023/10/13 10:59:00;;;;;;;6.45;3.85;;;18.10;66.80;;;;;;5095355;28;20477;-75
2023/10/13 11:01:33;;;;;;;5.88;4.00;;;18.10;66.80;;;;;;5078742;28;20075;-75
2023/10/13 11:04:07;;;;;;;5.32;4.28;;;18.10;66.80;;;;;;5096002;28;20127;-76
2023/10/13 11:06:41;;;;;;;4.05;3.58;;;18.10;66.90;;;;;;5061037;28;20051;-76
2023/10/13 11:11:57;;;;;;;5.20;3.72;;;18.10;67.10;;;;;;5094612;28;20488;-77
2023/10/13 11:14:27;;;;;;;6.88;3.78;;;18.00;67.00;;;;;;5075622;28;20054;-74
2023/10/13 11:16:55;;;;;;;4.47;3.72;;;18.10;67.00;;;;;;5075887;28;20389;-72
2023/10/13 11:19:38;;;;;;;5.55;3.97;;;18.10;67.00;;;;;;5068981;28;20094;-73
2023/10/13 11:22:37;;;;;;;4.88;3.90;;;18.10;67.70;;;;;;5068359;28;20477;-75
2023/10/13 11:25:11;;;;;;;6.00;3.67;;;18.20;67.00;;;;;;5074582;28;20519;-74
2023/10/13 11:30:24;;;;;;;5.88;4.03;;;18.40;66.90;;;;;;5092795;28;20036;-76
2023/10/13 11:33:10;;;;;;;5.63;4.00;;;18.50;66.80;;;;;;5093470;28;20024;-74
2023/10/13 11:38:26;;;;;;;5.28;3.95;;;18.70;66.30;;;;;;5080389;28;20024;-74
2023/10/13 11:48:38;;;;;;;5.78;3.70;;;18.90;65.80;;;;;;5083581;28;20029;-73
2023/10/13 11:51:09;;;;;;;4.07;3.67;;;18.90;65.70;;;;;;5056250;28;20029;-76
2023/10/13 11:53:35;;;;;;;4.78;4.07;;;19.00;65.60;;;;;;5089750;28;20047;-75
2023/10/13 11:56:08;;;;;;;5.38;3.90;;;19.00;65.50;;;;;;5073585;28;20070;-74
2023/10/13 11:58:34;;;;;;;5.45;4.03;;;19.10;65.50;;;;;;5057009;28;20036;-76
2023/10/13 12:11:45;;;;;;;5.75;4.70;;;19.00;65.10;;;;;;5093797;28;20051;-77
2023/10/13 12:14:52;;;;;;;5.20;4.32;;;18.90;65.20;;;;;;5075425;28;20048;-76
2023/10/13 12:17:24;;;;;;;6.60;4.25;;;18.90;65.30;;;;;;5075017;28;20530;-78
2023/10/13 12:19:52;;;;;;;4.97;4.25;;;18.80;65.80;;;;;;5075782;28;20127;-75
2023/10/13 12:22:26;;;;;;;5.40;4.40;;;18.80;65.30;;;;;;5065057;28;20060;-77
2023/10/13 12:24:55;;;;;;;7.38;4.40;;;18.80;65.30;;;;;;5065844;28;20078;-76
2023/10/13 12:27:45;;;;;;;5.93;4.65;;;18.70;65.40;;;;;;5077418;28;20478;-76
2023/10/13 12:30:13;;;;;;;8.98;5.35;;;18.70;66.20;;;;;;5075284;28;20036;-76
2023/10/13 12:32:53;;;;;;;6.90;5.22;;;18.70;65.70;;;;;;5079422;28;20066;-79
2023/10/13 12:35:37;;;;;;;8.90;5.20;;;18.70;65.70;;;;;;5101741;28;20050;-75
2023/10/13 12:38:05;;;;;;;5.53;4.90;;;18.70;65.60;;;;;;5099060;28;20435;-79
2023/10/13 12:56:42;;;;;;;6.10;4.97;;;18.80;65.70;;;;;;5089111;28;20537;-74
2023/10/13 12:59:14;;;;;;;6.18;5.28;;;18.80;65.70;;;;;;5082976;28;20112;-74
2023/10/13 13:01:43;;;;;;;5.50;4.90;;;18.80;65.60;;;;;;5086291;28;20020;-73
2023/10/13 13:04:31;;;;;;;5.93;4.97;;;18.80;65.60;;;;;;5065697;28;20056;-73
2023/10/13 13:06:57;;;;;;;6.00;4.82;;;18.80;65.60;;;;;;5090490;28;20030;-75
2023/10/13 13:09:25;;;;;;;6.55;5.07;;;18.80;65.50;;;;;;5082397;28;20099;-72
2023/10/13 13:11:57;;;;;;;6.63;4.82;;;18.80;65.50;;;;;;5058984;28;20035;-73
2023/10/13 13:14:28;;;;;;;7.03;5.40;;;18.80;65.50;;;;;;5069478;28;20020;-73
2023/10/13 13:17:07;;;;;;;6.55;4.63;;;18.80;65.50;;;;;;5078272;28;20020;-74
2023/10/13 13:19:39;;;;;;;6.95;4.97;;;18.80;65.60;;;;;;5058139;28;20029;-73
2023/10/13 13:22:11;;;;;;;5.63;5.00;;;18.70;65.50;;;;;;5075856;28;20058;-73
2023/10/13 13:24:44;;;;;;;5.00;4.50;;;18.70;65.60;;;;;;5075521;28;20064;-74
2023/10/13 13:27:14;;;;;;;7.03;4.90;;;18.70;65.70;;;;;;5095683;28;20067;-72
2023/10/13 13:29:44;;;;;;;8.27;4.95;;;18.60;65.60;;;;;;5077650;28;20395;-72
2023/10/13 13:32:17;;;;;;;5.65;4.65;;;18.60;65.70;;;;;;5073686;28;20027;-71
2023/10/13 13:34:54;;;;;;;7.30;5.00;;;18.60;65.70;;;;;;5085415;28;20028;-73
2023/10/13 13:37:21;;;;;;;8.15;5.10;;;18.60;65.80;;;;;;5064839;28;20084;-71
2023/10/13 13:39:47;;;;;;;7.35;4.95;;;18.50;65.80;;;;;;5068738;28;20029;-72
2023/10/13 13:42:17;;;;;;;6.57;4.90;;;18.50;65.90;;;;;;5095111;28;20108;-71
2023/10/13 13:44:46;;;;;;;5.78;4.57;;;18.40;65.80;;;;;;5077665;28;20524;-72
2023/10/13 13:47:15;;;;;;;5.18;4.65;;;18.40;66.00;;;;;;5095444;28;20024;-72
2023/10/13 13:49:46;;;;;;;6.00;5.20;;;18.40;66.00;;;;;;5077183;28;20051;-71
2023/10/13 13:52:17;;;;;;;5.30;4.80;;;18.30;66.10;;;;;;5064210;28;20021;-73
2023/10/13 13:54:43;;;;;;;6.50;4.72;;;18.30;66.20;;;;;;5057550;28;20028;-73
2023/10/13 13:57:09;;;;;;;7.10;4.80;;;18.30;66.20;;;;;;5075437;28;20505;-71
2023/10/13 13:59:36;;;;;;;6.50;5.18;;;18.30;66.20;;;;;;5057154;28;20111;-71
2023/10/13 14:02:19;;;;;;;8.65;5.35;;;18.30;66.30;;;;;;5057229;28;20462;-72
2023/10/13 14:04:52;;;;;;;7.38;5.05;;;18.30;66.40;;;;;;5075301;28;20048;-73
2023/10/13 14:07:19;;;;;;;8.35;4.90;;;18.20;66.30;;;;;;5089799;28;20040;-73
2023/10/13 14:09:51;;;;;;;7.35;5.20;;;18.20;66.40;;;;;;5076406;28;20032;-75
2023/10/13 14:12:41;;;;;;;5.40;4.53;;;18.20;66.80;;;;;;5095059;28;20028;-72
2023/10/13 14:15:19;;;;;;;5.47;4.75;;;18.20;66.50;;;;;;5077185;28;20416;-72
2023/10/13 14:17:49;;;;;;;6.78;4.85;;;18.10;66.40;;;;;;5095283;28;20049;-73
2023/10/13 14:20:18;;;;;;;7.10;5.47;;;18.20;66.60;;;;;;5076274;28;20028;-76
2023/10/13 14:22:48;;;;;;;5.07;4.53;;;18.10;66.50;;;;;;5094091;28;20039;-76
2023/10/13 14:25:14;;;;;;;5.95;4.93;;;18.10;66.60;;;;;;5094262;28;20032;-71
2023/10/13 14:27:43;;;;;;;5.20;4.70;;;18.10;66.70;;;;;;5094309;28;20047;-73
2023/10/13 14:30:09;;;;;;;8.35;5.35;;;18.10;66.70;;;;;;5075454;28;20039;-73
2023/10/13 14:32:40;;;;;;;6.18;5.15;;;18.10;66.80;;;;;;5076222;28;20057;-74
2023/10/13 14:35:14;;;;;;;12.32;10.32;;;18.10;66.80;;;;;;5092885;28;20059;-73
2023/10/13 14:37:40;;;;;;;11.23;7.95;;;18.10;67.00;;;;;;5079756;28;20031;-71
2023/10/13 14:40:12;;;;;;;10.35;7.72;;;18.00;67.10;;;;;;5093851;28;20031;-71
2023/10/13 14:42:40;;;;;;;9.05;7.95;;;18.00;67.20;;;;;;5089317;28;20025;-71
2023/10/13 14:45:12;;;;;;;9.18;7.60;;;18.00;67.30;;;;;;5075920;28;20406;-72
2023/10/13 14:47:42;;;;;;;9.73;7.57;;;18.00;67.30;;;;;;5083185;28;20034;-72
2023/10/13 14:50:17;;;;;;;8.98;6.93;;;17.90;67.30;;;;;;5066050;28;20024;-71
2023/10/13 14:52:43;;;;;;;9.10;6.82;;;17.90;67.30;;;;;;5082705;28;20482;-71
2023/10/13 14:55:18;;;;;;;8.80;6.93;;;17.90;67.40;;;;;;5067483;28;20027;-71
2023/10/13 14:57:47;;;;;;;7.97;7.05;;;17.80;67.30;;;;;;5083317;28;20036;-72
2023/10/13 15:00:14;;;;;;;10.20;7.30;;;17.80;67.40;;;;;;5085295;28;20070;-71
2023/10/13 15:02:43;;;;;;;7.70;6.90;;;17.70;67.40;;;;;;5063572;28;20032;-72
2023/10/13 15:05:16;;;;;;;12.07;7.82;;;17.70;67.60;;;;;;5084401;28;20086;-74
2023/10/13 15:07:45;;;;;;;9.98;7.07;;;17.60;67.70;;;;;;5066599;28;20060;-74
2023/10/13 15:10:15;;;;;;;10.23;7.88;;;17.60;67.90;;;;;;5092714;28;20027;-73
2023/10/13 15:12:48;;;;;;;10.05;8.20;;;17.60;68.00;;;;;;5084472;28;20444;-74
2023/10/13 15:15:16;;;;;;;9.82;8.07;;;17.50;68.00;;;;;;5072287;28;20028;-75
2023/10/13 15:17:43;;;;;;;9.80;8.07;;;17.50;68.10;;;;;;5072451;28;20043;-75
2023/10/13 15:20:18;;;;;;;11.05;8.23;;;17.50;68.20;;;;;;5084040;28;20072;-74
2023/10/13 15:22:44;;;;;;;10.15;7.68;;;17.40;68.20;;;;;;5086182;28;20060;-74
2023/10/13 15:25:29;;;;;;;9.63;7.35;;;17.40;68.30;;;;;;5070687;28;20497;-73
2023/10/13 15:28:05;;;;;;;10.90;7.15;;;17.30;68.40;;;;;;5074387;28;20036;-72
2023/10/13 15:30:55;;;;;;;9.13;6.85;;;17.30;68.40;;;;;;5070148;28;20453;-75
2023/10/13 15:33:21;;;;;;;8.90;7.20;;;17.30;68.50;;;;;;5073531;28;20116;-74
2023/10/13 15:35:47;;;;;;;9.52;7.57;;;17.20;68.50;;;;;;5073590;28;20481;-75
2023/10/13 15:38:12;;;;;;;8.65;6.97;;;17.20;68.50;;;;;;5092160;28;20069;-73
2023/10/13 15:40:43;;;;;;;8.70;6.78;;;17.20;68.60;;;;;;5093266;28;20439;-74
2023/10/13 15:43:09;;;;;;;9.80;7.30;;;17.10;68.70;;;;;;5080827;28;20378;-74
2023/10/13 15:45:42;;;;;;;7.80;6.95;;;17.10;68.70;;;;;;5074640;28;20111;-76
2023/10/13 15:48:11;;;;;;;9.32;7.47;;;17.10;68.70;;;;;;5081835;28;20028;-78
2023/10/13 15:50:40;;;;;;;8.95;7.30;;;17.00;68.70;;;;;;5095004;28;20029;-76
2023/10/13 15:53:07;;;;;;;9.05;7.18;;;17.00;68.80;;;;;;5093757;28;20445;-74
2023/10/13 15:55:39;;;;;;;8.73;6.80;;;17.00;69.40;;;;;;5093595;28;20032;-74
2023/10/13 15:58:07;;;;;;;9.13;7.25;;;17.00;68.90;;;;;;5090994;28;20086;-71
2023/10/13 16:00:35;;;;;;;8.88;6.90;;;16.90;68.90;;;;;;5055031;28;20032;-73
2023/10/13 16:03:01;;;;;;;8.23;6.82;;;16.90;69.00;;;;;;5075176;28;20036;-72
2023/10/13 16:05:34;;;;;;;8.32;7.10;;;16.90;69.10;;;;;;5093905;28;20043;-71
2023/10/13 16:08:00;;;;;;;8.50;7.22;;;16.90;69.10;;;;;;5079523;28;20411;-71
2023/10/13 16:10:29;;;;;;;8.65;7.32;;;16.90;69.20;;;;;;5089726;28;20028;-70
2023/10/13 16:12:57;;;;;;;9.50;7.57;;;16.80;69.20;;;;;;5089722;28;20020;-72
2023/10/13 16:15:23;;;;;;;8.82;7.35;;;16.80;69.20;;;;;;5087164;28;20032;-70
2023/10/13 16:17:53;;;;;;;7.90;6.75;;;16.80;69.20;;;;;;5086101;28;20020;-70
2023/10/13 16:20:20;;;;;;;8.75;7.20;;;16.70;69.20;;;;;;5067549;28;20115;-70
2023/10/13 16:22:47;;;;;;;10.00;8.13;;;16.80;69.40;;;;;;5091315;28;20024;-74
2023/10/13 16:25:14;;;;;;;10.18;8.50;;;16.70;69.40;;;;;;5089140;28;20040;-72
2023/10/13 16:27:44;;;;;;;12.75;9.68;;;16.70;69.40;;;;;;5085350;28;20036;-76
2023/10/13 16:30:14;;;;;;;11.73;9.32;;;16.70;70.10;;;;;;5087260;28;20027;-72
2023/10/13 16:32:45;;;;;;;12.80;8.93;;;16.70;70.20;;;;;;5071827;28;20122;-70
2023/10/13 16:35:13;;;;;;;11.05;8.95;;;16.60;69.60;;;;;;5069278;28;20024;-73
2023/10/13 16:37:39;;;;;;;11.05;8.65;;;16.60;69.70;;;;;;5090569;28;20028;-72
2023/10/13 16:40:06;;;;;;;12.63;9.15;;;16.60;69.70;;;;;;5096292;28;20514;-73
2023/10/13 16:42:37;;;;;;;12.30;9.38;;;16.60;69.80;;;;;;5077558;28;20040;-75
2023/10/13 16:45:21;;;;;;;13.73;9.98;;;16.60;69.80;;;;;;5091720;28;20525;-74
2023/10/13 16:47:48;;;;;;;12.65;9.15;;;16.60;69.90;;;;;;5084190;28;20028;-74
2023/10/13 16:50:16;;;;;;;11.18;9.45;;;16.60;69.90;;;;;;5068167;28;20039;-74
2023/10/13 16:52:45;;;;;;;13.13;10.80;;;16.60;70.00;;;;;;5087042;28;20028;-73
2023/10/13 16:55:17;;;;;;;14.82;11.45;;;16.50;69.90;;;;;;5085768;28;20032;-77
2023/10/13 16:57:50;;;;;;;13.85;11.27;;;16.50;70.00;;;;;;5066881;28;20098;-71
2023/10/13 17:00:25;;;;;;;15.38;11.52;;;16.50;70.60;;;;;;5094312;28;20484;-72
2023/10/13 17:02:52;;;;;;;14.70;12.18;;;16.50;70.00;;;;;;5087546;28;20024;-71
2023/10/13 17:05:18;;;;;;;15.60;12.27;;;16.50;70.10;;;;;;5064301;28;20045;-73
2023/10/13 17:07:46;;;;;;;14.65;11.32;;;16.50;70.10;;;;;;5064598;28;20086;-73